Latest Weather Observations for Nerriga

IDN60801

Issued at 11:05 am EST Tuesday 30 August 2016 (issued every 30 minutes, with the page automatically refreshed every 10 minutes)

About weather observations | Map of weather stations | Latest weather observations for NSW | Other Formats
Station Details ID: 069128 Name: NERRIGA AWS Lat: -35.11 Lon: 150.08 Height: 622.0 m
Data from the previous 72 hours. | See also: Recent months at Nerriga
Date/Time
EST
Temp
°C
App
Temp
°C
Dew
Point
°C
Rel
Hum
%
Delta-T
°C
Wind Press
QNH
hPa
Press
MSL
hPa
Rain since
9am
mm
Dir  Spd
km/h
Gust
km/h
Spd
kts
Gust
kts
30/11:00am 12.5 9.9 7.6 72 2.5 NNW 11 19 6 10 1025.8 1026.6 0.0
30/10:30am 12.3 9.4 8.2 76 2.1 NNW 13 19 7 10 1026.2 1027.1 0.0
30/10:00am 11.1 8.7 7.2 77 1.9 N 9 15 5 8 1026.0 1026.9 0.0
30/09:30am 10.5 8.4 6.8 78 1.8 E 7 13 4 7 1025.8 1026.6 0.0
30/09:00am 9.2 7.6 6.3 82 1.4 E 4 6 2 3 1026.2 1027.1 0.0
30/08:30am 8.7 6.6 5.8 82 1.4 E 6 7 3 4 1026.3 1027.2 0.0
30/08:00am 7.7 5.9 5.5 86 1.0 E 4 6 2 3 1026.6 1027.5 0.0
30/07:30am 6.4 4.9 5.2 92 0.5 E 2 4 1 2 1026.1 1027.0 0.0
30/07:00am 7.0 5.9 5.3 89 0.8 CALM 0 0 0 0 1025.8 1026.6 0.0
30/06:30am 5.8 4.2 4.6 92 0.5 E 2 2 1 1 1025.7 1026.5 0.0
30/06:00am 6.3 4.8 5.1 92 0.5 E 2 4 1 2 1025.8 1026.6 0.0
30/05:30am 5.8 4.6 4.8 93 0.4 CALM 0 0 0 0 1025.5 1026.3 0.0
30/05:00am 6.1 4.9 4.4 89 0.8 CALM 0 0 0 0 1025.3 1026.2 0.0
30/04:30am 5.7 4.0 4.2 90 0.7 E 2 4 1 2 1025.3 1026.2 0.0
30/04:00am 5.2 3.8 3.7 90 0.6 CALM 0 0 0 0 1025.3 1026.2 0.0
30/03:30am 5.6 3.8 3.3 85 1.0 E 2 2 1 1 1025.1 1026.0 0.0
30/03:00am 7.1 5.0 4.1 81 1.3 E 4 6 2 3 1024.6 1025.5 0.0
30/02:30am 6.1 4.0 3.8 85 1.0 E 4 6 2 3 1025.1 1026.0 0.0
30/02:00am 6.5 4.3 3.1 79 1.5 E 4 6 2 3 1025.7 1026.5 0.0
30/01:30am 7.4 4.7 3.6 77 1.7 E 7 9 4 5 1025.5 1026.3 0.0
30/01:00am 7.1 4.7 4.4 83 1.2 E 6 7 3 4 1025.9 1026.7 0.0
30/12:30am 6.9 5.8 4.9 87 0.9 CALM 0 0 0 0 1026.2 1027.1 0.0
30/12:00am 6.7 5.2 5.2 90 0.7 E 2 4 1 2 1026.5 1027.4 0.0
 
Date/Time
EST
Temp
°C
App
Temp
°C
Dew
Point
°C
Rel
Hum
%
Delta-T
°C
Wind Press
QNH
hPa
Press
MSL
hPa
Rain since
9am
mm
Dir  Spd
km/h
Gust
km/h
Spd
kts
Gust
kts
29/11:30pm 6.3 5.0 4.3 87 0.9 CALM 0 0 0 0 1026.4 1027.3 0.0
29/11:00pm 6.3 3.9 4.5 88 0.8 E 6 7 3 4 1026.0 1026.9 0.0
29/10:30pm 6.8 5.5 4.3 84 1.1 CALM 0 0 0 0 1026.2 1027.1 0.0
29/10:00pm 8.0 6.7 4.0 76 1.8 CALM 0 2 0 1 1026.4 1027.3 0.0
29/09:30pm 8.9 7.1 3.7 70 2.3 E 2 4 1 2 1026.4 1027.3 0.0
29/09:00pm 9.8 8.1 3.8 66 2.7 E 2 6 1 3 1025.9 1026.7 0.0
29/08:30pm 10.2 7.9 4.6 68 2.6 E 6 7 3 4 1025.7 1026.5 0.0
29/08:00pm 10.5 7.8 5.5 71 2.4 E 9 11 5 6 1025.7 1026.5 0.0
29/07:30pm 10.3 8.3 7.0 80 1.6 E 7 9 4 5 1025.5 1026.3 0.0
29/07:00pm 10.9 8.7 8.0 82 1.5 E 9 15 5 8 1025.3 1026.2 0.0
29/06:30pm 11.3 8.8 8.3 82 1.5 E 11 17 6 9 1025.1 1026.0 0.0
29/06:00pm 11.6 8.8 8.6 82 1.5 ENE 13 22 7 12 1025.1 1026.0 0.0
29/05:30pm 12.2 9.2 7.9 75 2.2 ENE 13 19 7 10 1024.9 1025.8 0.0
29/05:00pm 12.9 9.7 5.3 60 3.6 ENE 11 17 6 9 1024.9 1025.8 0.0
29/04:30pm 13.7 10.4 4.3 53 4.5 ENE 11 17 6 9 1024.9 1025.8 0.0
29/04:00pm 13.3 9.2 2.5 48 4.9 NE 13 19 7 10 1024.6 1025.5 0.0
29/03:30pm 13.5 9.0 2.4 47 5.1 NNE 15 19 8 10 1024.6 1025.5 0.0
29/03:00pm 14.2 10.9 4.8 53 4.5 NE 11 17 6 9 1024.7 1025.6 0.0
29/02:30pm 14.4 10.7 4.4 51 4.8 NE 13 17 7 9 1024.8 1025.7 0.0
29/02:00pm 15.2 11.4 4.0 47 5.3 NE 13 17 7 9 1024.6 1025.5 0.0
29/01:30pm 15.4 11.6 3.9 46 5.5 NNE 13 20 7 11 1024.5 1025.3 0.0
29/01:00pm 15.4 11.6 5.6 52 4.8 ENE 15 20 8 11 1024.7 1025.6 0.0
29/12:30pm 14.7 11.1 5.0 52 4.7 ENE 13 19 7 10 1025.0 1025.9 0.0
29/12:00pm 15.1 11.8 4.5 49 5.1 ENE 11 17 6 9 1025.1 1026.0 0.0
29/11:30am 14.6 11.2 5.7 55 4.4 ENE 13 19 7 10 1025.7 1026.5 0.0
29/11:00am 13.7 12.4 7.5 66 3.1 NW 4 9 2 5 1026.2 1027.1 0.0
29/10:30am 11.4 9.9 6.9 74 2.2 NW 4 7 2 4 1026.7 1027.6 0.0
29/10:00am 10.2 8.5 6.0 75 2.0 NW 4 7 2 4 1027.0 1027.9 0.0
29/09:30am 8.5 7.3 6.3 86 1.0 NW 2 6 1 3 1027.2 1028.0 0.0
29/09:00am 6.4 4.5 4.7 89 0.8 NW 4 6 2 3 1027.3 1028.1 0.0
29/08:30am 6.0 4.9 5.3 95 0.3 CALM 0 4 0 2 1026.9 1027.8 0.0
29/08:00am 4.0 2.7 3.9 99 0.0 CALM 0 0 0 0 1026.8 1027.7 0.0
29/07:30am 2.5 0.2 2.5 100 0.0 NW 4 4 2 2 1026.3 1027.2 0.0
29/07:00am 0.3 -3.0 0.3 100 0.0 NW 7 9 4 5 1025.8 1026.6 0.0
29/06:30am -0.2 -2.2 -0.2 100 0.0 CALM 0 0 0 0 1025.3 1026.2 0.0
29/06:00am 0.5 -1.4 0.5 100 0.0 CALM 0 0 0 0 1025.0 1025.9 0.0
29/05:30am 1.1 -1.5 1.1 100 0.0 NW 4 6 2 3 1024.8 1025.7 0.0
29/05:00am 0.1 -2.6 0.0 99 0.0 NW 4 6 2 3 1024.6 1025.5 0.0
29/04:30am 0.6 -1.7 0.6 100 0.0 NW 2 2 1 1 1024.5 1025.3 0.0
29/04:00am 2.5 0.5 2.5 100 0.0 NW 2 4 1 2 1024.3 1025.1 0.0
29/03:30am 1.4 -0.4 1.4 100 0.0 CALM 0 0 0 0 1024.0 1024.8 0.0
29/03:00am 1.4 -0.4 1.0 97 0.2 CALM 0 0 0 0 1023.8 1024.6 0.0
29/02:30am 2.1 0.0 1.8 98 0.1 NW 2 4 1 2 1023.8 1024.6 0.0
29/02:00am 2.5 0.8 1.8 95 0.3 CALM 0 0 0 0 1024.0 1024.8 0.0
29/01:30am 3.1 1.5 2.5 96 0.2 CALM 0 0 0 0 1024.0 1024.8 0.0
29/01:00am 3.6 2.1 3.2 97 0.2 CALM 0 0 0 0 1024.1 1024.9 0.0
29/12:30am 3.8 2.3 3.2 96 0.3 CALM 0 0 0 0 1023.8 1024.6 0.0
29/12:00am 2.9 1.3 2.3 96 0.2 CALM 0 0 0 0 1023.4 1024.3 0.0
 
Date/Time
EST
Temp
°C
App
Temp
°C
Dew
Point
°C
Rel
Hum
%
Delta-T
°C
Wind Press
QNH
hPa
Press
MSL
hPa
Rain since
9am
mm
Dir  Spd
km/h
Gust
km/h
Spd
kts
Gust
kts
28/11:30pm 4.2 2.7 3.0 92 0.5 CALM 0 0 0 0 1023.5 1024.4 0.0
28/11:00pm 4.1 2.4 2.1 87 0.8 CALM 0 0 0 0 1023.3 1024.2 0.0
28/10:30pm 5.6 3.7 3.1 84 1.1 NW 2 4 1 2 1023.3 1024.2 0.0
28/10:00pm 6.9 4.7 3.5 79 1.5 NW 4 6 2 3 1023.4 1024.3 0.0
28/09:30pm 6.8 4.6 3.2 78 1.6 NW 4 7 2 4 1023.3 1024.2 0.0
28/09:00pm 6.8 4.6 3.6 80 1.4 NW 4 6 2 3 1023.2 1024.1 0.0
28/08:30pm 7.1 4.6 3.7 79 1.5 NW 6 7 3 4 1023.2 1024.1 0.0
28/08:00pm 7.4 5.3 3.8 78 1.6 NW 4 9 2 5 1023.0 1023.8 0.0
28/07:30pm 7.8 5.1 3.8 76 1.8 NW 7 11 4 6 1022.7 1023.5 0.0
28/07:00pm 7.5 5.3 3.6 76 1.7 NW 4 4 2 2 1022.7 1023.5 0.0
28/06:30pm 8.4 5.9 3.7 72 2.1 NW 6 7 3 4 1022.3 1023.1 0.0
28/06:00pm 9.0 6.2 3.4 68 2.5 NW 7 9 4 5 1021.8 1022.6 0.0
28/05:30pm 10.5 7.9 3.3 61 3.3 NW 6 7 3 4 1021.4 1022.2 0.0
28/05:00pm 11.6 7.7 3.4 57 3.7 NW 13 19 7 10 1021.0 1021.8 0.0
28/04:30pm 12.4 8.6 3.9 56 4.0 W 13 24 7 13 1021.0 1021.8 0.0
28/04:00pm 12.3 7.1 2.7 52 4.3 W 19 28 10 15 1020.9 1021.7 0.0
28/03:30pm 12.8 7.7 3.2 52 4.4 WNW 19 30 10 16 1020.8 1021.6 0.0
28/03:00pm 12.7 8.6 4.2 56 4.0 WNW 15 24 8 13 1020.9 1021.7 0.0
28/02:30pm 11.5 7.1 2.8 55 3.9 W 15 24 8 13 1021.1 1021.9 0.0
28/02:00pm 11.7 7.7 3.0 55 3.9 W 13 24 7 13 1021.2 1022.0 0.0
28/01:30pm 11.5 6.9 3.5 58 3.7 W 17 24 9 13 1021.2 1022.0 0.0
28/01:00pm 10.6 7.0 2.7 58 3.5 W 11 19 6 10 1021.6 1022.4 0.0
28/12:30pm 10.7 5.9 2.8 58 3.5 WSW 17 30 9 16 1021.8 1022.6 0.0
28/12:00pm 10.2 5.5 3.0 61 3.2 WNW 17 24 9 13 1022.1 1022.9 0.0
28/11:30am 9.7 5.9 3.9 67 2.6 WNW 13 19 7 10 1022.4 1023.2 0.0
28/11:00am 8.8 3.7 2.8 66 2.6 WNW 19 28 10 15 1022.6 1023.4 0.0
28/10:30am 9.2 4.4 2.8 64 2.8 WNW 17 26 9 14 1022.7 1023.5 0.0
28/10:00am 10.5 4.8 2.8 59 3.4 WNW 22 32 12 17 1022.6 1023.4 0.0
28/09:30am 9.5 3.7 2.4 61 3.1 WNW 22 30 12 16 1022.8 1023.6 0.0
28/09:00am 9.2 4.7 1.9 60 3.1 W 15 26 8 14 1022.8 1023.6 0.0
28/08:30am 8.1 3.2 1.7 64 2.7 W 17 24 9 13 1022.7 1023.5 0.0
28/08:00am 7.0 2.4 1.5 68 2.3 WSW 15 24 8 13 1022.7 1023.5 0.0
28/07:30am 5.3 2.3 2.0 79 1.4 SW 7 17 4 9 1022.4 1023.2 0.0
28/07:00am 3.5 -0.1 0.7 82 1.1 WSW 9 11 5 6 1022.2 1023.0 0.0
28/06:30am 1.9 -1.2 0.3 89 0.6 WNW 6 9 3 5 1021.6 1022.4 0.0
28/06:00am 1.7 -0.6 0.4 91 0.5 WNW 2 6 1 3 1021.1 1021.9 0.0
28/05:30am 1.9 -0.5 0.0 87 0.7 WNW 2 4 1 2 1021.0 1021.8 0.0
28/05:00am 1.8 -0.2 0.0 88 0.7 CALM 0 2 0 1 1020.7 1021.5 0.0
28/04:30am 1.9 -0.9 -0.5 84 0.9 WNW 4 6 2 3 1020.4 1021.1 0.0
28/04:00am 3.7 0.5 0.6 80 1.2 NW 7 13 4 7 1020.5 1021.2 0.0
28/03:30am 3.3 0.0 0.2 80 1.2 NW 7 13 4 7 1020.5 1021.2 0.0
28/03:00am 3.5 0.4 0.2 79 1.3 NW 6 9 3 5 1020.7 1021.5 0.0
28/02:30am 3.8 0.6 0.7 80 1.2 W 7 11 4 6 1020.9 1021.7 0.0
28/02:00am 3.9 0.3 0.6 79 1.3 WNW 9 15 5 8 1021.3 1022.1 0.0
28/01:30am 4.3 -0.8 0.6 77 1.5 WNW 17 30 9 16 1021.2 1022.0 0.0
28/01:00am 4.6 -0.8 1.1 78 1.4 WNW 19 28 10 15 1021.1 1021.9 0.0
28/12:30am 4.9 -1.1 1.2 77 1.5 WNW 22 32 12 17 1021.2 1022.0 0.0
28/12:00am 4.6 -0.8 1.1 78 1.4 NW 19 26 10 14 1021.2 1022.0 0.0
 
Date/Time
EST
Temp
°C
App
Temp
°C
Dew
Point
°C
Rel
Hum
%
Delta-T
°C
Wind Press
QNH
hPa
Press
MSL
hPa
Rain since
9am
mm
Dir  Spd
km/h
Gust
km/h
Spd
kts
Gust
kts
27/11:30pm 4.6 0.0 1.3 79 1.3 WNW 15 24 8 13 1021.5 1022.3 0.0
27/11:00pm 4.8 0.9 1.3 78 1.4 WNW 11 20 6 11 1021.8 1022.6 0.0
27/10:30pm 5.2 0.6 1.5 77 1.5 WNW 15 20 8 11 1021.9 1022.8 0.0
27/10:00pm 5.4 0.8 1.3 75 1.7 WNW 15 22 8 12 1021.7 1022.5 0.0
27/09:30pm 5.6 0.7 1.7 76 1.6 WNW 17 28 9 15 1021.7 1022.5 0.0
27/09:00pm 5.2 1.4 1.7 78 1.4 WNW 11 19 6 10 1021.8 1022.6 0.0
27/08:30pm 5.7 1.1 1.6 75 1.7 NW 15 20 8 11 1021.7 1022.5 0.0
27/08:00pm 5.8 2.3 1.5 74 1.8 NNW 9 17 5 9 1021.8 1022.6 0.0
27/07:30pm 6.3 3.2 1.6 72 2.0 NNW 7 13 4 7 1021.4 1022.2 0.0
27/07:00pm 6.9 3.5 1.8 70 2.1 NW 9 15 5 8 1021.1 1021.9 0.0
27/06:30pm 7.4 2.9 2.1 69 2.3 NW 15 22 8 12 1020.9 1021.7 0.0
27/06:00pm 7.9 3.0 2.0 66 2.5 WNW 17 24 9 13 1020.8 1021.6 0.0
27/05:30pm 8.9 3.0 1.6 60 3.1 WNW 22 32 12 17 1020.2 1021.0 0.0
27/05:00pm 9.9 4.3 1.5 56 3.6 NW 20 32 11 17 1020.0 1020.8 0.0
27/04:30pm 10.8 4.9 1.6 53 4.0 NW 22 37 12 20 1019.7 1020.5 0.0
27/04:00pm 11.5 5.3 2.3 53 4.1 NW 24 33 13 18 1019.8 1020.6 0.0
27/03:30pm 11.8 5.9 2.0 51 4.4 NW 22 32 12 17 1019.6 1020.4 0.0
27/03:00pm 12.2 6.8 2.6 52 4.3 NW 20 32 11 17 1019.8 1020.6 0.0
27/02:30pm 12.2 6.4 2.4 51 4.4 WNW 22 35 12 19 1020.0 1020.8 0.0
27/02:00pm 12.5 6.7 2.4 50 4.5 WNW 22 30 12 16 1020.1 1020.9 0.0
27/01:30pm 11.8 5.5 1.7 50 4.5 NW 24 33 13 18 1020.1 1020.9 0.0
27/01:00pm 11.8 5.9 1.7 50 4.4 WNW 22 33 12 18 1020.4 1021.1 0.0
27/12:30pm 11.7 6.1 1.4 49 4.5 NW 20 32 11 17 1020.8 1021.6 0.0
27/12:00pm 11.1 5.0 0.5 48 4.5 NW 22 28 12 15 1021.2 1022.0 0.0
27/11:30am 10.5 5.6 2.1 56 3.7 NNW 17 24 9 13 1021.6 1022.4 0.0

Other Formats:

Comma delimited format used in spreadsheet applications
http://www.bom.gov.au/fwo/IDN60801/IDN60801.94943.axf

JavaScript Object Notation format (JSON) in row-major order
http://www.bom.gov.au/fwo/IDN60801/IDN60801.94943.json